sensor_id;sensor_type;location;lat;lon;timestamp;P1;durP1;ratioP1;P2;durP2;ratioP2
50231;SDS011;36118;56.468;84.952;2024-02-26T00:03:21;57.00;;;24.77;;
50231;SDS011;36118;56.468;84.952;2024-02-26T00:08:25;55.08;;;26.58;;
50231;SDS011;36118;56.468;84.952;2024-02-26T00:13:27;58.72;;;21.77;;
50231;SDS011;36118;56.468;84.952;2024-02-26T00:18:31;52.00;;;19.70;;
50231;SDS011;36118;56.468;84.952;2024-02-26T00:23:34;57.78;;;24.20;;
50231;SDS011;36118;56.468;84.952;2024-02-26T00:28:37;51.83;;;18.55;;
50231;SDS011;36118;56.468;84.952;2024-02-26T00:33:40;55.33;;;20.08;;
50231;SDS011;36118;56.468;84.952;2024-02-26T00:38:44;63.83;;;26.42;;
50231;SDS011;36118;56.468;84.952;2024-02-26T00:43:53;58.90;;;23.15;;
50231;SDS011;36118;56.468;84.952;2024-02-26T00:48:56;55.83;;;22.08;;
50231;SDS011;36118;56.468;84.952;2024-02-26T00:54:00;50.95;;;18.10;;
50231;SDS011;36118;56.468;84.952;2024-02-26T00:59:04;48.72;;;20.92;;
50231;SDS011;36118;56.468;84.952;2024-02-26T01:04:07;52.65;;;21.50;;
50231;SDS011;36118;56.468;84.952;2024-02-26T01:09:10;47.05;;;20.33;;
50231;SDS011;36118;56.468;84.952;2024-02-26T01:14:14;58.13;;;23.58;;
50231;SDS011;36118;56.468;84.952;2024-02-26T01:19:18;65.65;;;26.35;;
50231;SDS011;36118;56.468;84.952;2024-02-26T01:24:21;55.88;;;21.90;;
50231;SDS011;36118;56.468;84.952;2024-02-26T01:29:24;56.17;;;23.92;;
50231;SDS011;36118;56.468;84.952;2024-02-26T01:34:28;63.90;;;28.00;;
50231;SDS011;36118;56.468;84.952;2024-02-26T01:39:32;53.47;;;22.45;;
50231;SDS011;36118;56.468;84.952;2024-02-26T01:44:36;55.90;;;26.40;;
50231;SDS011;36118;56.468;84.952;2024-02-26T01:49:41;64.43;;;28.63;;
50231;SDS011;36118;56.468;84.952;2024-02-26T01:54:44;63.55;;;24.98;;
50231;SDS011;36118;56.468;84.952;2024-02-26T01:59:47;56.58;;;23.38;;
50231;SDS011;36118;56.468;84.952;2024-02-26T02:04:52;53.53;;;23.15;;
50231;SDS011;36118;56.468;84.952;2024-02-26T02:09:56;54.13;;;22.80;;
50231;SDS011;36118;56.468;84.952;2024-02-26T02:14:59;48.28;;;15.90;;
50231;SDS011;36118;56.468;84.952;2024-02-26T02:20:15;52.50;;;24.98;;
50231;SDS011;36118;56.468;84.952;2024-02-26T02:25:21;56.42;;;21.73;;
50231;SDS011;36118;56.468;84.952;2024-02-26T02:30:25;53.47;;;21.20;;
50231;SDS011;36118;56.468;84.952;2024-02-26T02:35:30;48.80;;;18.95;;
50231;SDS011;36118;56.468;84.952;2024-02-26T02:40:34;62.35;;;22.83;;
50231;SDS011;36118;56.468;84.952;2024-02-26T02:45:37;55.05;;;20.85;;
50231;SDS011;36118;56.468;84.952;2024-02-26T02:50:41;54.60;;;23.98;;
50231;SDS011;36118;56.468;84.952;2024-02-26T02:55:45;55.13;;;22.80;;
50231;SDS011;36118;56.468;84.952;2024-02-26T03:00:49;56.30;;;22.42;;
50231;SDS011;36118;56.468;84.952;2024-02-26T03:05:52;54.30;;;22.08;;
50231;SDS011;36118;56.468;84.952;2024-02-26T03:10:58;57.85;;;25.98;;
50231;SDS011;36118;56.468;84.952;2024-02-26T03:16:04;39.58;;;16.98;;
50231;SDS011;36118;56.468;84.952;2024-02-26T03:21:08;47.83;;;19.85;;
50231;SDS011;36118;56.468;84.952;2024-02-26T03:26:11;51.28;;;19.65;;
50231;SDS011;36118;56.468;84.952;2024-02-26T03:31:17;52.15;;;21.60;;
50231;SDS011;36118;56.468;84.952;2024-02-26T03:36:20;56.90;;;23.95;;
50231;SDS011;36118;56.468;84.952;2024-02-26T03:41:24;48.33;;;21.20;;
50231;SDS011;36118;56.468;84.952;2024-02-26T03:51:31;50.30;;;19.63;;
50231;SDS011;36118;56.468;84.952;2024-02-26T03:56:35;54.65;;;22.80;;
50231;SDS011;36118;56.468;84.952;2024-02-26T04:06:45;55.30;;;17.80;;
50231;SDS011;36118;56.468;84.952;2024-02-26T04:11:50;55.30;;;20.95;;
50231;SDS011;36118;56.468;84.952;2024-02-26T04:16:53;43.00;;;15.80;;
50231;SDS011;36118;56.468;84.952;2024-02-26T04:21:57;51.50;;;19.40;;
50231;SDS011;36118;56.468;84.952;2024-02-26T04:27:01;39.80;;;14.13;;
50231;SDS011;36118;56.468;84.952;2024-02-26T04:32:05;51.90;;;24.00;;
50231;SDS011;36118;56.468;84.952;2024-02-26T04:37:09;57.95;;;21.77;;
50231;SDS011;36118;56.468;84.952;2024-02-26T04:42:11;51.42;;;19.33;;
50231;SDS011;36118;56.468;84.952;2024-02-26T04:47:14;40.45;;;14.98;;
50231;SDS011;36118;56.468;84.952;2024-02-26T04:52:18;49.42;;;19.27;;
50231;SDS011;36118;56.468;84.952;2024-02-26T04:57:21;48.88;;;19.77;;
50231;SDS011;36118;56.468;84.952;2024-02-26T05:02:25;54.78;;;21.65;;
50231;SDS011;36118;56.468;84.952;2024-02-26T05:07:29;45.88;;;18.83;;
50231;SDS011;36118;56.468;84.952;2024-02-26T05:12:32;45.23;;;17.60;;
50231;SDS011;36118;56.468;84.952;2024-02-26T05:17:37;105.40;;;40.67;;
50231;SDS011;36118;56.468;84.952;2024-02-26T05:22:42;125.13;;;46.67;;
50231;SDS011;36118;56.468;84.952;2024-02-26T05:27:45;117.03;;;45.40;;
50231;SDS011;36118;56.468;84.952;2024-02-26T05:32:48;63.55;;;23.23;;
50231;SDS011;36118;56.468;84.952;2024-02-26T05:37:51;49.38;;;18.23;;
50231;SDS011;36118;56.468;84.952;2024-02-26T05:42:54;99.00;;;40.90;;
50231;SDS011;36118;56.468;84.952;2024-02-26T05:47:58;86.83;;;35.40;;
50231;SDS011;36118;56.468;84.952;2024-02-26T05:53:03;97.20;;;38.58;;
50231;SDS011;36118;56.468;84.952;2024-02-26T05:58:06;73.20;;;26.47;;
50231;SDS011;36118;56.468;84.952;2024-02-26T06:03:09;100.07;;;35.88;;
50231;SDS011;36118;56.468;84.952;2024-02-26T06:08:13;61.55;;;22.23;;
50231;SDS011;36118;56.468;84.952;2024-02-26T06:13:17;90.45;;;35.90;;
50231;SDS011;36118;56.468;84.952;2024-02-26T06:18:23;29.95;;;13.15;;
50231;SDS011;36118;56.468;84.952;2024-02-26T06:23:27;32.60;;;12.80;;
50231;SDS011;36118;56.468;84.952;2024-02-26T06:28:30;32.80;;;14.35;;
50231;SDS011;36118;56.468;84.952;2024-02-26T06:33:36;37.72;;;14.20;;
50231;SDS011;36118;56.468;84.952;2024-02-26T06:38:39;31.75;;;13.57;;
50231;SDS011;36118;56.468;84.952;2024-02-26T06:43:42;33.97;;;13.27;;
50231;SDS011;36118;56.468;84.952;2024-02-26T06:48:47;31.65;;;13.52;;
50231;SDS011;36118;56.468;84.952;2024-02-26T06:53:56;32.42;;;13.10;;
50231;SDS011;36118;56.468;84.952;2024-02-26T06:59:00;36.75;;;15.38;;
50231;SDS011;36118;56.468;84.952;2024-02-26T07:04:04;33.38;;;14.30;;
50231;SDS011;36118;56.468;84.952;2024-02-26T07:14:10;39.88;;;16.98;;
50231;SDS011;36118;56.468;84.952;2024-02-26T07:24:19;66.82;;;27.83;;
50231;SDS011;36118;56.468;84.952;2024-02-26T07:29:23;29.30;;;13.13;;
50231;SDS011;36118;56.468;84.952;2024-02-26T07:34:25;22.55;;;10.25;;
50231;SDS011;36118;56.468;84.952;2024-02-26T07:39:32;31.50;;;11.40;;
50231;SDS011;36118;56.468;84.952;2024-02-26T07:44:36;27.38;;;11.13;;
50231;SDS011;36118;56.468;84.952;2024-02-26T07:49:40;26.40;;;10.38;;
50231;SDS011;36118;56.468;84.952;2024-02-26T07:54:44;30.98;;;12.00;;
50231;SDS011;36118;56.468;84.952;2024-02-26T07:59:47;30.15;;;11.90;;
50231;SDS011;36118;56.468;84.952;2024-02-26T08:04:53;28.30;;;12.48;;
50231;SDS011;36118;56.468;84.952;2024-02-26T08:09:57;35.28;;;11.63;;
50231;SDS011;36118;56.468;84.952;2024-02-26T08:15:00;27.08;;;9.90;;
50231;SDS011;36118;56.468;84.952;2024-02-26T08:20:06;29.75;;;10.38;;
50231;SDS011;36118;56.468;84.952;2024-02-26T08:25:10;26.67;;;11.35;;
50231;SDS011;36118;56.468;84.952;2024-02-26T08:30:14;31.60;;;11.68;;
50231;SDS011;36118;56.468;84.952;2024-02-26T08:35:19;25.70;;;11.10;;
50231;SDS011;36118;56.468;84.952;2024-02-26T08:40:23;25.25;;;11.02;;
50231;SDS011;36118;56.468;84.952;2024-02-26T08:45:27;29.95;;;10.90;;
50231;SDS011;36118;56.468;84.952;2024-02-26T08:50:31;24.38;;;10.32;;
50231;SDS011;36118;56.468;84.952;2024-02-26T08:55:34;22.40;;;9.50;;
50231;SDS011;36118;56.468;84.952;2024-02-26T09:00:37;26.25;;;10.07;;
50231;SDS011;36118;56.468;84.952;2024-02-26T09:05:41;28.48;;;9.95;;
50231;SDS011;36118;56.468;84.952;2024-02-26T09:10:44;27.67;;;12.88;;
50231;SDS011;36118;56.468;84.952;2024-02-26T09:15:47;26.35;;;10.20;;
50231;SDS011;36118;56.468;84.952;2024-02-26T09:20:52;36.97;;;11.55;;
50231;SDS011;36118;56.468;84.952;2024-02-26T09:25:56;28.98;;;10.60;;
50231;SDS011;36118;56.468;84.952;2024-02-26T09:31:00;23.42;;;10.27;;
50231;SDS011;36118;56.468;84.952;2024-02-26T09:36:04;25.27;;;11.55;;
50231;SDS011;36118;56.468;84.952;2024-02-26T09:41:12;28.73;;;10.25;;
50231;SDS011;36118;56.468;84.952;2024-02-26T09:46:20;29.33;;;11.32;;
50231;SDS011;36118;56.468;84.952;2024-02-26T09:51:23;24.52;;;9.68;;
50231;SDS011;36118;56.468;84.952;2024-02-26T09:56:29;23.55;;;9.55;;
50231;SDS011;36118;56.468;84.952;2024-02-26T10:01:35;24.23;;;9.95;;
50231;SDS011;36118;56.468;84.952;2024-02-26T10:06:40;22.98;;;10.18;;
50231;SDS011;36118;56.468;84.952;2024-02-26T10:11:43;18.02;;;7.63;;
50231;SDS011;36118;56.468;84.952;2024-02-26T10:16:47;28.33;;;10.37;;
50231;SDS011;36118;56.468;84.952;2024-02-26T10:21:56;21.95;;;9.70;;
50231;SDS011;36118;56.468;84.952;2024-02-26T10:27:00;25.15;;;11.43;;
50231;SDS011;36118;56.468;84.952;2024-02-26T10:32:07;27.60;;;10.03;;
50231;SDS011;36118;56.468;84.952;2024-02-26T10:37:12;25.00;;;8.75;;
50231;SDS011;36118;56.468;84.952;2024-02-26T10:42:16;19.57;;;8.67;;
50231;SDS011;36118;56.468;84.952;2024-02-26T10:47:22;27.45;;;8.48;;
50231;SDS011;36118;56.468;84.952;2024-02-26T10:52:27;30.25;;;10.82;;
50231;SDS011;36118;56.468;84.952;2024-02-26T10:57:38;20.95;;;9.10;;
50231;SDS011;36118;56.468;84.952;2024-02-26T11:02:44;28.33;;;9.82;;
50231;SDS011;36118;56.468;84.952;2024-02-26T11:07:51;26.17;;;8.93;;
50231;SDS011;36118;56.468;84.952;2024-02-26T11:12:56;23.63;;;9.57;;
50231;SDS011;36118;56.468;84.952;2024-02-26T11:18:03;31.15;;;11.27;;
50231;SDS011;36118;56.468;84.952;2024-02-26T11:23:09;27.35;;;10.60;;
50231;SDS011;36118;56.468;84.952;2024-02-26T11:33:17;24.90;;;9.70;;
50231;SDS011;36118;56.468;84.952;2024-02-26T11:38:21;28.33;;;9.82;;
50231;SDS011;36118;56.468;84.952;2024-02-26T11:48:54;31.20;;;11.63;;
50231;SDS011;36118;56.468;84.952;2024-02-26T11:53:59;25.65;;;9.93;;
50231;SDS011;36118;56.468;84.952;2024-02-26T11:59:04;28.73;;;9.75;;
50231;SDS011;36118;56.468;84.952;2024-02-26T12:04:17;24.05;;;9.85;;
50231;SDS011;36118;56.468;84.952;2024-02-26T12:14:51;29.67;;;9.63;;
50231;SDS011;36118;56.468;84.952;2024-02-26T12:20:11;28.65;;;10.93;;
50231;SDS011;36118;56.468;84.952;2024-02-26T12:25:17;25.58;;;9.65;;
50231;SDS011;36118;56.468;84.952;2024-02-26T12:30:24;47.13;;;20.23;;
50231;SDS011;36118;56.468;84.952;2024-02-26T12:35:35;33.25;;;14.57;;
50231;SDS011;36118;56.468;84.952;2024-02-26T12:40:38;32.35;;;10.93;;
50231;SDS011;36118;56.468;84.952;2024-02-26T12:45:42;23.38;;;9.38;;
50231;SDS011;36118;56.468;84.952;2024-02-26T12:50:50;24.40;;;11.07;;
50231;SDS011;36118;56.468;84.952;2024-02-26T12:55:54;27.98;;;9.90;;
50231;SDS011;36118;56.468;84.952;2024-02-26T13:00:59;27.25;;;10.63;;
50231;SDS011;36118;56.468;84.952;2024-02-26T13:11:05;31.87;;;11.63;;
50231;SDS011;36118;56.468;84.952;2024-02-26T13:16:10;30.30;;;11.32;;
50231;SDS011;36118;56.468;84.952;2024-02-26T13:21:18;37.70;;;14.05;;
50231;SDS011;36118;56.468;84.952;2024-02-26T13:26:22;41.83;;;13.32;;
50231;SDS011;36118;56.468;84.952;2024-02-26T13:31:27;36.78;;;12.70;;
50231;SDS011;36118;56.468;84.952;2024-02-26T13:36:30;39.67;;;14.35;;
50231;SDS011;36118;56.468;84.952;2024-02-26T13:41:33;37.43;;;13.20;;
50231;SDS011;36118;56.468;84.952;2024-02-26T13:46:38;34.15;;;12.75;;
50231;SDS011;36118;56.468;84.952;2024-02-26T13:51:42;33.47;;;11.85;;
50231;SDS011;36118;56.468;84.952;2024-02-26T13:56:45;38.20;;;13.23;;
50231;SDS011;36118;56.468;84.952;2024-02-26T14:01:50;34.63;;;12.88;;
50231;SDS011;36118;56.468;84.952;2024-02-26T14:06:55;35.53;;;14.52;;
50231;SDS011;36118;56.468;84.952;2024-02-26T14:11:59;51.90;;;21.23;;
50231;SDS011;36118;56.468;84.952;2024-02-26T14:17:06;54.33;;;21.95;;
50231;SDS011;36118;56.468;84.952;2024-02-26T14:22:11;52.17;;;20.33;;
50231;SDS011;36118;56.468;84.952;2024-02-26T14:32:19;57.17;;;22.77;;
50231;SDS011;36118;56.468;84.952;2024-02-26T14:37:23;49.35;;;18.77;;
50231;SDS011;36118;56.468;84.952;2024-02-26T14:42:27;54.00;;;22.63;;
50231;SDS011;36118;56.468;84.952;2024-02-26T14:47:33;51.60;;;19.70;;
50231;SDS011;36118;56.468;84.952;2024-02-26T14:52:36;45.15;;;16.23;;
50231;SDS011;36118;56.468;84.952;2024-02-26T14:57:39;40.40;;;15.73;;
50231;SDS011;36118;56.468;84.952;2024-02-26T15:02:43;45.65;;;19.70;;
50231;SDS011;36118;56.468;84.952;2024-02-26T15:07:46;53.90;;;18.48;;
50231;SDS011;36118;56.468;84.952;2024-02-26T15:12:49;34.95;;;13.98;;
50231;SDS011;36118;56.468;84.952;2024-02-26T15:17:57;43.20;;;18.17;;
50231;SDS011;36118;56.468;84.952;2024-02-26T15:28:03;44.47;;;17.63;;
50231;SDS011;36118;56.468;84.952;2024-02-26T15:33:08;33.60;;;13.68;;
50231;SDS011;36118;56.468;84.952;2024-02-26T15:38:11;32.92;;;14.43;;
50231;SDS011;36118;56.468;84.952;2024-02-26T15:43:15;32.30;;;10.63;;
50231;SDS011;36118;56.468;84.952;2024-02-26T15:48:19;40.75;;;16.35;;
50231;SDS011;36118;56.468;84.952;2024-02-26T15:53:22;32.10;;;12.57;;
50231;SDS011;36118;56.468;84.952;2024-02-26T15:58:25;27.57;;;11.67;;
50231;SDS011;36118;56.468;84.952;2024-02-26T16:03:28;25.43;;;10.53;;
50231;SDS011;36118;56.468;84.952;2024-02-26T16:08:31;25.33;;;10.02;;
50231;SDS011;36118;56.468;84.952;2024-02-26T16:13:35;32.80;;;11.13;;
50231;SDS011;36118;56.468;84.952;2024-02-26T16:18:39;30.43;;;11.03;;
50231;SDS011;36118;56.468;84.952;2024-02-26T16:23:44;37.90;;;10.07;;
50231;SDS011;36118;56.468;84.952;2024-02-26T16:28:47;22.63;;;8.47;;
50231;SDS011;36118;56.468;84.952;2024-02-26T16:33:50;28.75;;;10.70;;
50231;SDS011;36118;56.468;84.952;2024-02-26T16:38:54;39.50;;;14.07;;
50231;SDS011;36118;56.468;84.952;2024-02-26T16:43:58;31.15;;;11.20;;
50231;SDS011;36118;56.468;84.952;2024-02-26T16:49:01;80.10;;;29.48;;
50231;SDS011;36118;56.468;84.952;2024-02-26T16:54:11;102.47;;;34.20;;
50231;SDS011;36118;56.468;84.952;2024-02-26T16:59:15;142.82;;;49.70;;
50231;SDS011;36118;56.468;84.952;2024-02-26T17:04:19;146.20;;;52.67;;
50231;SDS011;36118;56.468;84.952;2024-02-26T17:14:25;130.10;;;48.53;;
50231;SDS011;36118;56.468;84.952;2024-02-26T17:19:30;112.90;;;42.42;;
50231;SDS011;36118;56.468;84.952;2024-02-26T17:24:33;118.72;;;45.70;;
50231;SDS011;36118;56.468;84.952;2024-02-26T17:29:36;111.38;;;41.20;;
50231;SDS011;36118;56.468;84.952;2024-02-26T17:39:44;150.02;;;52.28;;
50231;SDS011;36118;56.468;84.952;2024-02-26T17:49:50;116.50;;;40.38;;
50231;SDS011;36118;56.468;84.952;2024-02-26T17:54:53;111.38;;;37.42;;
50231;SDS011;36118;56.468;84.952;2024-02-26T17:59:56;124.35;;;45.03;;
50231;SDS011;36118;56.468;84.952;2024-02-26T18:10:02;102.68;;;34.65;;
50231;SDS011;36118;56.468;84.952;2024-02-26T18:15:09;97.80;;;34.50;;
50231;SDS011;36118;56.468;84.952;2024-02-26T18:20:12;107.13;;;36.35;;
50231;SDS011;36118;56.468;84.952;2024-02-26T18:25:15;97.15;;;34.35;;
50231;SDS011;36118;56.468;84.952;2024-02-26T18:30:19;99.70;;;38.45;;
50231;SDS011;36118;56.468;84.952;2024-02-26T18:35:22;103.00;;;36.75;;
50231;SDS011;36118;56.468;84.952;2024-02-26T18:40:25;108.13;;;38.55;;
50231;SDS011;36118;56.468;84.952;2024-02-26T18:45:28;90.32;;;31.38;;
50231;SDS011;36118;56.468;84.952;2024-02-26T18:50:32;81.88;;;29.85;;
50231;SDS011;36118;56.468;84.952;2024-02-26T18:55:35;101.38;;;35.13;;
50231;SDS011;36118;56.468;84.952;2024-02-26T19:00:40;96.28;;;33.45;;
50231;SDS011;36118;56.468;84.952;2024-02-26T19:05:44;90.18;;;30.98;;
50231;SDS011;36118;56.468;84.952;2024-02-26T19:10:47;93.45;;;29.20;;
50231;SDS011;36118;56.468;84.952;2024-02-26T19:15:54;81.47;;;29.42;;
50231;SDS011;36118;56.468;84.952;2024-02-26T19:20:57;84.45;;;30.60;;
50231;SDS011;36118;56.468;84.952;2024-02-26T19:26:00;98.55;;;34.15;;
50231;SDS011;36118;56.468;84.952;2024-02-26T19:31:04;95.00;;;31.10;;
50231;SDS011;36118;56.468;84.952;2024-02-26T19:36:09;107.40;;;35.55;;
50231;SDS011;36118;56.468;84.952;2024-02-26T19:41:12;107.63;;;37.85;;
50231;SDS011;36118;56.468;84.952;2024-02-26T19:46:17;118.75;;;40.63;;
50231;SDS011;36118;56.468;84.952;2024-02-26T19:51:21;101.88;;;36.83;;
50231;SDS011;36118;56.468;84.952;2024-02-26T19:56:24;98.57;;;36.05;;
50231;SDS011;36118;56.468;84.952;2024-02-26T20:01:29;101.60;;;35.88;;
50231;SDS011;36118;56.468;84.952;2024-02-26T20:06:32;118.25;;;38.10;;
50231;SDS011;36118;56.468;84.952;2024-02-26T20:11:36;105.68;;;36.45;;
50231;SDS011;36118;56.468;84.952;2024-02-26T20:16:44;142.07;;;42.03;;
50231;SDS011;36118;56.468;84.952;2024-02-26T20:21:48;134.07;;;41.53;;
50231;SDS011;36118;56.468;84.952;2024-02-26T20:26:52;121.78;;;40.03;;
50231;SDS011;36118;56.468;84.952;2024-02-26T20:31:55;149.40;;;47.53;;
50231;SDS011;36118;56.468;84.952;2024-02-26T20:36:58;136.43;;;44.10;;
50231;SDS011;36118;56.468;84.952;2024-02-26T20:42:02;141.27;;;41.95;;
50231;SDS011;36118;56.468;84.952;2024-02-26T20:47:05;129.10;;;37.60;;
50231;SDS011;36118;56.468;84.952;2024-02-26T20:52:08;119.15;;;40.33;;
50231;SDS011;36118;56.468;84.952;2024-02-26T20:57:11;119.45;;;33.72;;
50231;SDS011;36118;56.468;84.952;2024-02-26T21:02:14;130.65;;;39.58;;
50231;SDS011;36118;56.468;84.952;2024-02-26T21:07:30;120.25;;;35.75;;
50231;SDS011;36118;56.468;84.952;2024-02-26T21:12:33;152.43;;;48.50;;
50231;SDS011;36118;56.468;84.952;2024-02-26T21:17:36;121.32;;;39.75;;
50231;SDS011;36118;56.468;84.952;2024-02-26T21:22:40;126.40;;;35.88;;
50231;SDS011;36118;56.468;84.952;2024-02-26T21:27:46;115.00;;;38.33;;
50231;SDS011;36118;56.468;84.952;2024-02-26T21:32:49;114.53;;;34.00;;
50231;SDS011;36118;56.468;84.952;2024-02-26T21:37:53;121.47;;;36.70;;
50231;SDS011;36118;56.468;84.952;2024-02-26T21:42:57;101.95;;;32.70;;
50231;SDS011;36118;56.468;84.952;2024-02-26T21:48:00;125.40;;;39.17;;
50231;SDS011;36118;56.468;84.952;2024-02-26T21:53:04;120.90;;;38.15;;
50231;SDS011;36118;56.468;84.952;2024-02-26T21:58:07;111.15;;;34.65;;
50231;SDS011;36118;56.468;84.952;2024-02-26T22:03:11;112.65;;;33.55;;
50231;SDS011;36118;56.468;84.952;2024-02-26T22:08:15;131.63;;;42.85;;
50231;SDS011;36118;56.468;84.952;2024-02-26T22:13:18;103.20;;;33.22;;
50231;SDS011;36118;56.468;84.952;2024-02-26T22:18:22;114.07;;;38.83;;
50231;SDS011;36118;56.468;84.952;2024-02-26T22:23:26;115.40;;;38.20;;
50231;SDS011;36118;56.468;84.952;2024-02-26T22:28:28;108.32;;;33.33;;
50231;SDS011;36118;56.468;84.952;2024-02-26T22:33:32;101.00;;;31.60;;
50231;SDS011;36118;56.468;84.952;2024-02-26T22:38:35;119.60;;;41.25;;
50231;SDS011;36118;56.468;84.952;2024-02-26T22:43:38;101.38;;;34.17;;
50231;SDS011;36118;56.468;84.952;2024-02-26T22:48:40;121.53;;;41.50;;
50231;SDS011;36118;56.468;84.952;2024-02-26T22:53:44;105.40;;;39.28;;
50231;SDS011;36118;56.468;84.952;2024-02-26T22:58:48;107.15;;;38.47;;
50231;SDS011;36118;56.468;84.952;2024-02-26T23:03:51;88.05;;;29.08;;
50231;SDS011;36118;56.468;84.952;2024-02-26T23:08:55;99.30;;;32.55;;
50231;SDS011;36118;56.468;84.952;2024-02-26T23:13:59;90.55;;;34.25;;
50231;SDS011;36118;56.468;84.952;2024-02-26T23:19:02;85.60;;;29.27;;
50231;SDS011;36118;56.468;84.952;2024-02-26T23:24:05;96.50;;;33.92;;
50231;SDS011;36118;56.468;84.952;2024-02-26T23:29:09;90.00;;;33.60;;
50231;SDS011;36118;56.468;84.952;2024-02-26T23:34:14;104.35;;;32.03;;
50231;SDS011;36118;56.468;84.952;2024-02-26T23:39:17;65.47;;;23.33;;
50231;SDS011;36118;56.468;84.952;2024-02-26T23:44:20;71.57;;;24.00;;
50231;SDS011;36118;56.468;84.952;2024-02-26T23:49:23;93.25;;;29.95;;
50231;SDS011;36118;56.468;84.952;2024-02-26T23:54:27;76.70;;;28.50;;
50231;SDS011;36118;56.468;84.952;2024-02-26T23:59:30;87.90;;;28.73;;
